createdAt,value
2022-09-22T00:00:44.312Z,10.45
2022-09-22T00:06:09.454Z,10.40
2022-09-22T00:11:18.953Z,10.39
2022-09-22T00:16:28.576Z,10.29
2022-09-22T00:21:34.673Z,10.19
2022-09-22T00:26:42.239Z,10.23
2022-09-22T00:31:48.445Z,10.13
2022-09-22T00:36:54.688Z,10.12
2022-09-22T00:42:01.973Z,10.00
2022-09-22T00:47:26.311Z,9.91
2022-09-22T00:53:28.005Z,9.86
2022-09-22T00:58:42.383Z,9.82
2022-09-22T01:03:49.330Z,9.78
2022-09-22T01:08:57.186Z,9.79
2022-09-22T01:14:18.379Z,9.86
2022-09-22T01:20:23.977Z,9.89
2022-09-22T01:26:02.166Z,9.87
2022-09-22T01:31:17.743Z,9.78
2022-09-22T01:36:33.029Z,9.29
2022-09-22T01:41:52.891Z,9.29
2022-09-22T01:47:06.818Z,9.30
2022-09-22T01:52:21.129Z,9.43
2022-09-22T01:57:36.603Z,9.46
2022-09-22T02:02:51.876Z,9.47
2022-09-22T02:08:01.399Z,9.23
2022-09-22T02:13:07.589Z,9.38
2022-09-22T02:18:20.438Z,9.47
2022-09-22T02:23:26.612Z,9.40
2022-09-22T02:28:38.117Z,9.42
2022-09-22T02:33:45.675Z,9.38
2022-09-22T02:39:00.310Z,9.40
2022-09-22T02:44:14.194Z,9.37
2022-09-22T02:49:23.159Z,9.34
2022-09-22T02:54:29.182Z,9.30
2022-09-22T02:59:35.573Z,9.24
2022-09-22T03:04:42.939Z,9.27
2022-09-22T03:09:49.153Z,9.25
2022-09-22T03:14:55.466Z,9.24
2022-09-22T03:20:03.310Z,9.30
2022-09-22T03:25:11.262Z,9.26
2022-09-22T03:30:17.661Z,9.28
2022-09-22T03:35:25.189Z,9.30
2022-09-22T03:40:31.230Z,9.04
2022-09-22T03:45:37.292Z,9.11
2022-09-22T03:50:44.916Z,9.20
2022-09-22T03:55:51.071Z,9.24
2022-09-22T04:00:58.594Z,9.27
2022-09-22T04:06:07.188Z,9.26
2022-09-22T04:11:13.265Z,9.23
2022-09-22T04:16:19.619Z,9.15
2022-09-22T04:21:27.022Z,9.20
2022-09-22T04:26:32.986Z,9.16
2022-09-22T04:31:39.295Z,9.17
2022-09-22T04:36:46.647Z,9.18
2022-09-22T04:41:52.693Z,9.24
2022-09-22T04:46:58.648Z,9.19
2022-09-22T04:52:08.048Z,9.23
2022-09-22T04:57:18.337Z,9.19
2022-09-22T05:02:26.508Z,9.20
2022-09-22T05:07:34.133Z,9.25
2022-09-22T05:12:42.119Z,9.29
2022-09-22T05:17:49.871Z,9.30
2022-09-22T05:22:57.267Z,9.28
2022-09-22T05:28:03.585Z,9.32
2022-09-22T05:33:09.577Z,9.35
2022-09-22T05:38:16.883Z,9.41
2022-09-22T05:43:22.827Z,9.44
2022-09-22T05:48:31.222Z,9.44
2022-09-22T05:53:39.186Z,9.48
2022-09-22T05:58:45.399Z,9.53
2022-09-22T06:03:51.798Z,9.57
2022-09-22T06:08:59.310Z,9.63
2022-09-22T06:14:05.154Z,9.69
2022-09-22T06:19:11.157Z,9.73
2022-09-22T06:24:18.687Z,9.78
2022-09-22T06:29:24.828Z,9.84
2022-09-22T06:34:30.938Z,9.89
2022-09-22T06:39:38.766Z,9.91
2022-09-22T06:44:44.830Z,9.94
2022-09-22T06:49:51.100Z,9.99
2022-09-22T06:55:01.452Z,10.02
2022-09-22T07:00:10.004Z,10.11
2022-09-22T07:05:18.948Z,10.15
2022-09-22T07:10:26.714Z,10.18
2022-09-22T07:15:33.308Z,10.24
2022-09-22T07:20:39.325Z,10.31
2022-09-22T07:25:56.749Z,10.36
2022-09-22T07:31:06.381Z,10.40
2022-09-22T07:36:16.086Z,10.47
2022-09-22T07:41:25.300Z,10.50
2022-09-22T07:46:31.365Z,10.54
2022-09-22T07:51:38.947Z,10.61
2022-09-22T07:56:47.455Z,10.71
2022-09-22T08:01:54.509Z,10.79
2022-09-22T08:07:00.612Z,10.88
2022-09-22T08:12:10.855Z,10.97
2022-09-22T08:17:17.480Z,11.09
2022-09-22T08:22:24.002Z,11.18
2022-09-22T08:27:31.569Z,11.31
2022-09-22T08:32:37.931Z,11.36
2022-09-22T08:37:44.796Z,11.50
2022-09-22T08:42:55.883Z,11.58
2022-09-22T08:48:26.639Z,11.67
2022-09-22T08:53:36.906Z,11.71
2022-09-22T08:58:55.548Z,11.65
2022-09-22T09:04:11.582Z,11.66
2022-09-22T09:09:44.318Z,11.67
2022-09-22T09:15:21.143Z,11.66
2022-09-22T09:20:39.176Z,11.76
2022-09-22T09:25:46.705Z,11.89
2022-09-22T09:30:57.929Z,11.94
2022-09-22T09:36:04.334Z,12.12
2022-09-22T09:41:18.264Z,12.27
2022-09-22T09:46:41.138Z,12.21
2022-09-22T09:51:51.448Z,12.22
2022-09-22T09:57:13.901Z,12.62
2022-09-22T10:02:27.771Z,12.74
2022-09-22T10:07:45.189Z,12.64
2022-09-22T10:12:51.780Z,12.60
2022-09-22T10:17:59.496Z,12.85
2022-09-22T10:23:22.809Z,13.04
2022-09-22T10:28:28.749Z,13.00
2022-09-22T10:33:40.492Z,13.03
2022-09-22T10:38:51.654Z,13.02
2022-09-22T10:44:06.412Z,13.00
2022-09-22T10:49:31.991Z,12.94
2022-09-22T10:55:10.756Z,12.89
2022-09-22T11:00:19.455Z,12.84
2022-09-22T11:06:01.703Z,12.82
2022-09-22T11:11:33.636Z,12.87
2022-09-22T11:17:16.267Z,12.94
2022-09-22T11:22:44.064Z,12.98
2022-09-22T11:28:09.378Z,12.97
2022-09-22T11:34:09.512Z,12.93
2022-09-22T11:39:44.074Z,12.96
2022-09-22T11:45:09.192Z,12.96
2022-09-22T11:50:36.492Z,12.99
2022-09-22T11:55:53.124Z,13.05
2022-09-22T12:01:10.917Z,13.07
2022-09-22T12:06:24.928Z,13.14
2022-09-22T12:11:36.630Z,13.23
2022-09-22T12:16:49.299Z,13.26
2022-09-22T12:22:07.733Z,13.29
2022-09-22T12:27:23.421Z,13.27
2022-09-22T12:32:38.284Z,13.25
2022-09-22T12:37:44.797Z,13.21
2022-09-22T12:42:54.610Z,13.19
2022-09-22T12:48:06.002Z,13.21
2022-09-22T12:53:28.234Z,13.26
2022-09-22T12:58:48.131Z,13.31
2022-09-22T13:04:04.666Z,13.33
2022-09-22T13:09:21.939Z,13.34
2022-09-22T13:15:21.393Z,13.35
2022-09-22T13:20:33.927Z,13.34
2022-09-22T13:25:42.799Z,13.30
2022-09-22T13:31:04.949Z,13.22
2022-09-22T13:36:17.200Z,13.28
2022-09-22T13:41:26.601Z,13.27
2022-09-22T13:46:41.326Z,13.32
2022-09-22T13:51:55.928Z,13.29
2022-09-22T13:57:09.399Z,13.32
2022-09-22T14:02:28.201Z,13.34
2022-09-22T14:07:55.172Z,13.47
2022-09-22T14:13:05.270Z,13.45
2022-09-22T14:18:21.121Z,13.36
2022-09-22T14:23:32.215Z,13.38
2022-09-22T14:28:42.985Z,13.46
2022-09-22T14:33:50.714Z,13.54
2022-09-22T14:39:10.176Z,13.51
2022-09-22T14:44:39.780Z,13.47
2022-09-22T14:49:49.265Z,13.38
2022-09-22T14:54:58.140Z,13.33
2022-09-22T15:00:22.396Z,13.29
2022-09-22T15:05:34.517Z,13.21
2022-09-22T15:10:41.156Z,13.16
2022-09-22T15:15:49.199Z,13.14
2022-09-22T15:21:00.073Z,13.11
2022-09-22T15:26:07.062Z,13.08
2022-09-22T15:31:22.631Z,13.04
2022-09-22T15:36:32.345Z,13.00
2022-09-22T15:41:38.898Z,12.94
2022-09-22T15:46:50.624Z,12.83
2022-09-22T15:51:58.552Z,12.83
2022-09-22T15:57:08.138Z,12.77
2022-09-22T16:02:17.612Z,12.67
2022-09-22T16:07:25.270Z,12.61
2022-09-22T16:12:32.005Z,12.53
2022-09-22T16:17:38.619Z,12.42
2022-09-22T16:22:46.892Z,12.38
2022-09-22T16:27:52.967Z,12.30
2022-09-22T16:32:59.776Z,12.24
2022-09-22T16:38:07.221Z,12.22
2022-09-22T16:43:13.519Z,12.17
2022-09-22T16:48:19.583Z,12.12
2022-09-22T16:53:27.219Z,12.06
2022-09-22T16:58:34.015Z,12.03
2022-09-22T17:03:41.512Z,12.02
2022-09-22T17:08:48.951Z,11.96
2022-09-22T17:13:55.973Z,11.92
2022-09-22T17:19:05.057Z,11.88
2022-09-22T17:24:13.374Z,11.83
2022-09-22T17:29:25.327Z,11.78
2022-09-22T17:34:34.409Z,11.71
2022-09-22T17:39:43.842Z,11.62
2022-09-22T17:44:49.931Z,11.64
2022-09-22T17:50:13.091Z,11.62
2022-09-22T17:55:25.688Z,11.61
2022-09-22T18:00:34.068Z,11.59
2022-09-22T18:05:41.451Z,11.54
2022-09-22T18:10:49.423Z,11.50
2022-09-22T18:15:55.743Z,11.49
2022-09-22T18:21:06.462Z,11.40
2022-09-22T18:26:14.535Z,11.44
2022-09-22T18:31:20.553Z,11.47
2022-09-22T18:36:27.196Z,11.41
2022-09-22T18:41:35.822Z,11.41
2022-09-22T18:46:48.920Z,11.35
2022-09-22T18:51:59.095Z,11.31
2022-09-22T18:57:12.677Z,11.29
2022-09-22T19:02:23.213Z,11.24
2022-09-22T19:07:42.990Z,11.18
2022-09-22T19:12:51.259Z,11.17
2022-09-22T19:17:58.771Z,11.15
2022-09-22T19:23:07.494Z,11.17
2022-09-22T19:28:16.385Z,11.15
2022-09-22T19:33:25.005Z,11.12
2022-09-22T19:38:32.314Z,10.86
2022-09-22T19:43:39.992Z,10.82
2022-09-22T19:48:46.548Z,10.66
2022-09-22T19:53:57.272Z,10.71
2022-09-22T19:59:07.492Z,10.75
2022-09-22T20:04:18.125Z,10.66
2022-09-22T20:09:24.069Z,10.68
2022-09-22T20:14:32.309Z,10.64
2022-09-22T20:19:39.957Z,10.56
2022-09-22T20:24:54.246Z,10.50
2022-09-22T20:30:02.958Z,10.36
2022-09-22T20:35:12.162Z,10.38
2022-09-22T20:40:23.364Z,10.25
2022-09-22T20:45:30.814Z,10.20
2022-09-22T20:50:36.774Z,10.26
2022-09-22T20:55:42.965Z,9.94
2022-09-22T21:00:51.903Z,9.71
2022-09-22T21:06:01.813Z,9.80
2022-09-22T21:11:14.296Z,9.83
2022-09-22T21:16:22.063Z,9.75
2022-09-22T21:21:28.545Z,9.71
2022-09-22T21:26:35.333Z,9.58
2022-09-22T21:31:42.898Z,9.48
2022-09-22T21:36:49.261Z,9.41
2022-09-22T21:41:55.294Z,9.42
2022-09-22T21:47:02.769Z,9.54
2022-09-22T21:52:08.758Z,9.34
2022-09-22T21:57:14.741Z,9.35
2022-09-22T22:02:22.201Z,9.24
2022-09-22T22:07:28.250Z,9.06
2022-09-22T22:12:34.905Z,9.18
2022-09-22T22:17:42.314Z,9.05
2022-09-22T22:22:48.226Z,8.54
2022-09-22T22:27:57.094Z,8.59
2022-09-22T22:33:04.286Z,8.61
2022-09-22T22:38:11.043Z,8.55
2022-09-22T22:43:18.231Z,8.47
2022-09-22T22:48:26.446Z,8.36
2022-09-22T22:53:32.222Z,8.59
2022-09-22T22:58:39.415Z,8.66
2022-09-22T23:03:49.542Z,8.66
2022-09-22T23:08:56.409Z,8.75
2022-09-22T23:14:03.494Z,8.81
2022-09-22T23:19:14.164Z,8.93
2022-09-22T23:24:20.187Z,9.04
2022-09-22T23:29:26.120Z,9.06
2022-09-22T23:34:33.714Z,9.13
2022-09-22T23:39:39.405Z,9.20
2022-09-22T23:44:45.136Z,9.24
2022-09-22T23:49:52.285Z,9.27
2022-09-22T23:54:57.997Z,9.28
